Time;durP1;ratioP1;P1;durP2;ratioP2;P2;SDS_P1;SDS_P2;PMS_P1;PMS_P2;Temp;Humidity;BMP_temperature;BMP_pressure;BME280_temperature;BME280_humidity;BME280_pressure;Samples;Min_cycle;Max_cycle;Signal;HPM_P1;HPM_P2
2023/06/10 00:00:59;;;;;;;9.50;8.02;;;;;20.30;98274.00;;;;5051117;28;20041;-61
2023/06/10 00:03:26;;;;;;;10.35;7.93;;;;;20.20;98279.00;;;;5053099;28;20068;-62
2023/06/10 00:05:53;;;;;;;9.00;7.53;;;;;20.30;98273.00;;;;5051327;28;20118;-62
2023/06/10 00:08:19;;;;;;;8.32;7.55;;;;;20.20;98275.00;;;;5053289;28;20255;-61
2023/06/10 00:10:46;;;;;;;9.02;7.40;;;;;20.20;98279.00;;;;5054592;28;20116;-62
2023/06/10 00:13:12;;;;;;;8.75;7.70;;;;;20.20;98274.00;;;;5057247;28;20047;-61
2023/06/10 00:15:39;;;;;;;8.43;7.63;;;;;20.20;98270.00;;;;5056685;28;20045;-61
2023/06/10 00:18:06;;;;;;;10.45;8.30;;;;;20.10;98270.00;;;;5054441;28;20119;-62
2023/06/10 00:20:37;;;;;;;9.43;7.55;;;;;20.10;98268.00;;;;5056962;28;20045;-62
2023/06/10 00:23:06;;;;;;;8.75;7.85;;;;;20.00;98274.00;;;;5057207;28;20055;-63
2023/06/10 00:25:33;;;;;;;9.98;8.75;;;;;19.90;98279.00;;;;5055424;28;20041;-62
2023/06/10 00:27:59;;;;;;;9.00;8.20;;;;;19.80;98273.00;;;;5056940;28;20241;-62
2023/06/10 00:30:28;;;;;;;8.95;8.05;;;;;19.80;98280.00;;;;5055156;28;20049;-63
2023/06/10 00:32:55;;;;;;;8.73;7.93;;;;;19.80;98271.00;;;;5053323;28;20436;-62
2023/06/10 00:35:22;;;;;;;9.00;7.82;;;;;19.80;98270.00;;;;5057450;28;20041;-61
2023/06/10 00:37:48;;;;;;;8.70;7.90;;;;;19.80;98271.00;;;;5056916;28;20072;-61
2023/06/10 00:40:15;;;;;;;8.98;8.05;;;;;19.70;98268.00;;;;5057996;28;20049;-61
2023/06/10 00:42:41;;;;;;;9.55;8.05;;;;;19.70;98266.00;;;;5057685;28;20155;-61
2023/06/10 00:45:09;;;;;;;9.27;8.35;;;;;19.70;98272.00;;;;5058657;28;20084;-61
2023/06/10 00:47:36;;;;;;;9.52;8.30;;;;;19.60;98267.00;;;;5057170;28;20056;-60
2023/06/10 00:50:04;;;;;;;9.57;8.65;;;;;19.50;98275.00;;;;5055477;28;20045;-61
2023/06/10 00:52:31;;;;;;;9.27;8.45;;;;;19.30;98274.00;;;;5057354;28;20041;-61
2023/06/10 00:54:59;;;;;;;9.85;8.90;;;;;19.30;98267.00;;;;5055837;28;20045;-61
2023/06/10 00:57:26;;;;;;;11.43;9.00;;;;;19.30;98274.00;;;;5055562;28;20049;-60
2023/06/10 00:59:54;;;;;;;9.20;8.23;;;;;19.30;98273.00;;;;5056440;28;20512;-61
2023/06/10 01:02:21;;;;;;;9.82;8.82;;;;;19.30;98274.00;;;;5056457;28;20049;-61
2023/06/10 01:04:48;;;;;;;9.40;8.50;;;;;19.30;98275.00;;;;5056606;28;20052;-60
2023/06/10 01:07:39;;;;;;;10.05;9.02;;;;;19.30;98274.00;;;;5055701;28;20049;-62
2023/06/10 01:10:19;;;;;;;10.35;9.32;;;;;19.30;98272.00;;;;5056708;28;20049;-61
2023/06/10 01:12:59;;;;;;;10.18;9.18;;;;;19.40;98278.00;;;;5056234;28;20044;-61
2023/06/10 01:15:26;;;;;;;10.52;8.82;;;;;19.30;98281.00;;;;5054958;28;20037;-62
2023/06/10 01:18:01;;;;;;;10.93;9.10;;;;;19.20;98279.00;;;;5054698;28;20044;-61
2023/06/10 01:20:32;;;;;;;8.95;8.05;;;;;19.10;98273.00;;;;5055033;28;20572;-61
2023/06/10 01:23:00;;;;;;;14.13;8.63;;;;;19.20;98282.00;;;;5054459;28;20041;-61
2023/06/10 01:25:28;;;;;;;9.80;8.85;;;;;19.20;98291.00;;;;5054719;28;20045;-61
2023/06/10 01:28:09;;;;;;;11.32;10.13;;;;;19.30;98285.00;;;;5056162;28;20533;-61
2023/06/10 01:31:16;;;;;;;10.20;9.20;;;;;19.10;98284.00;;;;5055284;28;20132;-62
2023/06/10 01:33:51;;;;;;;10.43;9.13;;;;;19.00;98285.00;;;;5050281;28;20143;-62
2023/06/10 01:36:19;;;;;;;9.93;9.00;;;;;19.00;98296.00;;;;5053137;28;20566;-61
2023/06/10 01:38:47;;;;;;;10.55;9.50;;;;;19.00;98299.00;;;;5053162;28;20452;-61
2023/06/10 01:41:17;;;;;;;11.35;9.48;;;;;19.00;98292.00;;;;5052743;28;20048;-62
2023/06/10 01:43:45;;;;;;;10.25;9.30;;;;;18.80;98295.00;;;;5052721;28;20056;-62
2023/06/10 01:46:14;;;;;;;11.45;10.35;;;;;18.70;98295.00;;;;5051710;28;20455;-61
2023/06/10 01:48:42;;;;;;;11.07;9.88;;;;;18.80;98294.00;;;;5052665;28;20052;-61
2023/06/10 01:51:08;;;;;;;12.07;9.50;;;;;18.80;98299.00;;;;5052419;28;20073;-62
2023/06/10 01:53:35;;;;;;;13.55;9.70;;;;;18.60;98298.00;;;;5052807;28;20045;-61
2023/06/10 01:56:02;;;;;;;10.52;9.52;;;;;18.40;98292.00;;;;5054085;28;20112;-61
2023/06/10 01:58:28;;;;;;;11.82;10.63;;;;;18.30;98289.00;;;;5053852;28;20390;-62
2023/06/10 02:00:55;;;;;;;10.50;9.48;;;;;18.30;98296.00;;;;5052320;28;20140;-61
2023/06/10 02:03:22;;;;;;;11.27;9.82;;;;;18.30;98295.00;;;;5052474;28;20045;-61
2023/06/10 02:05:49;;;;;;;10.98;9.88;;;;;18.30;98296.00;;;;5053716;28;20041;-61
2023/06/10 02:08:16;;;;;;;12.05;10.13;;;;;18.20;98290.00;;;;5052528;28;20052;-61
2023/06/10 02:10:42;;;;;;;11.52;10.32;;;;;18.20;98291.00;;;;5053732;28;20045;-62
2023/06/10 02:13:09;;;;;;;11.38;10.35;;;;;18.30;98292.00;;;;5053521;28;20494;-62
2023/06/10 02:15:35;;;;;;;10.32;9.32;;;;;18.30;98295.00;;;;5052251;28;20132;-62
2023/06/10 02:18:02;;;;;;;10.57;9.48;;;;;18.40;98298.00;;;;5052128;28;20475;-62
2023/06/10 02:20:29;;;;;;;10.52;9.52;;;;;18.40;98299.00;;;;5053553;28;20037;-62
2023/06/10 02:22:56;;;;;;;17.20;9.85;;;;;18.50;98301.00;;;;5052074;28;20048;-62
2023/06/10 02:25:22;;;;;;;10.50;9.55;;;;;18.60;98303.00;;;;5052575;28;20072;-62
2023/06/10 02:27:49;;;;;;;12.65;9.32;;;;;18.60;98301.00;;;;5052174;28;20045;-62
2023/06/10 02:30:16;;;;;;;10.80;9.60;;;;;18.60;98300.00;;;;5052035;28;20044;-62
2023/06/10 02:32:47;;;;;;;12.57;8.57;;;;;18.60;98306.00;;;;5052772;28;20049;-62
2023/06/10 02:35:15;;;;;;;11.38;9.18;;;;;18.40;98310.00;;;;5054920;28;20048;-62
2023/06/10 02:37:42;;;;;;;11.13;9.85;;;;;18.30;98304.00;;;;5056567;28;20052;-62
2023/06/10 02:40:10;;;;;;;10.70;9.70;;;;;18.20;98300.00;;;;5052886;28;20136;-62
2023/06/10 02:42:37;;;;;;;10.93;9.90;;;;;18.10;98305.00;;;;5052271;28;20049;-62
2023/06/10 02:45:05;;;;;;;11.30;10.15;;;;;18.10;98309.00;;;;5052541;28;20033;-61
2023/06/10 02:47:39;;;;;;;10.95;9.88;;;;;18.00;98306.00;;;;5052126;28;20446;-63
2023/06/10 02:50:07;;;;;;;10.85;9.75;;;;;17.90;98306.00;;;;5051387;28;20047;-62
2023/06/10 02:52:41;;;;;;;12.50;10.52;;;;;17.90;98308.00;;;;5051652;28;20083;-62
2023/06/10 02:55:09;;;;;;;11.15;10.00;;;;;17.90;98306.00;;;;5051560;28;20502;-62
2023/06/10 02:57:38;;;;;;;11.23;10.02;;;;;17.90;98308.00;;;;5051472;28;20048;-62
2023/06/10 03:00:10;;;;;;;11.02;9.82;;;;;17.90;98304.00;;;;5051299;28;20426;-62
2023/06/10 03:02:39;;;;;;;15.55;9.60;;;;;17.80;98303.00;;;;5051781;28;20149;-62
2023/06/10 03:05:10;;;;;;;11.38;10.18;;;;;17.80;98297.00;;;;5051207;28;20045;-62
2023/06/10 03:07:40;;;;;;;10.63;9.52;;;;;17.70;98292.00;;;;5051429;28;20053;-62
2023/06/10 03:10:08;;;;;;;13.25;10.25;;;;;17.60;98306.00;;;;5050995;28;20579;-63
2023/06/10 03:12:37;;;;;;;10.93;9.82;;;;;17.60;98304.00;;;;5064938;28;20052;-62
2023/06/10 03:15:04;;;;;;;10.20;9.20;;;;;17.80;98291.00;;;;5072713;28;20037;-63
2023/06/10 03:17:31;;;;;;;10.25;9.30;;;;;18.00;98310.00;;;;5054607;28;20506;-63
2023/06/10 03:19:58;;;;;;;11.15;9.77;;;;;18.00;98308.00;;;;5072265;28;20498;-61
2023/06/10 03:22:24;;;;;;;11.00;10.00;;;;;17.90;98308.00;;;;5071236;28;20040;-61
2023/06/10 03:24:59;;;;;;;12.38;11.18;;;;;18.00;98306.00;;;;5071310;28;20044;-62
2023/06/10 03:27:29;;;;;;;12.95;11.60;;;;;18.00;98307.00;;;;5070987;28;20048;-63
2023/06/10 03:29:58;;;;;;;11.15;9.85;;;;;17.90;98309.00;;;;5070812;28;20074;-62
2023/06/10 03:32:26;;;;;;;11.45;10.25;;;;;17.90;98311.00;;;;5071121;28;20114;-62
2023/06/10 03:34:56;;;;;;;11.32;10.30;;;;;17.90;98317.00;;;;5071187;28;20055;-61
2023/06/10 03:37:25;;;;;;;12.77;11.55;;;;;17.80;98318.00;;;;5070953;28;20052;-61
2023/06/10 03:39:52;;;;;;;12.00;10.25;;;;;17.80;98316.00;;;;5070728;28;20041;-62
2023/06/10 03:42:19;;;;;;;11.60;10.50;;;;;17.70;98310.00;;;;5070909;28;20075;-62
2023/06/10 03:44:46;;;;;;;11.45;10.40;;;;;17.60;98310.00;;;;5070826;28;20052;-62
2023/06/10 03:47:12;;;;;;;12.63;9.88;;;;;17.60;98314.00;;;;5072276;28;20040;-63
2023/06/10 03:49:40;;;;;;;11.85;10.75;;;;;17.60;98310.00;;;;5070782;28;20045;-63
2023/06/10 03:52:07;;;;;;;11.15;9.90;;;;;17.70;98308.00;;;;5071012;28;20040;-63
2023/06/10 03:54:36;;;;;;;11.25;10.15;;;;;17.80;98308.00;;;;5070938;28;20447;-62
2023/06/10 03:57:03;;;;;;;17.10;14.55;;;;;17.80;98316.00;;;;5070766;28;20040;-62
2023/06/10 03:59:30;;;;;;;38.75;30.25;;;;;17.80;98311.00;;;;5070997;28;20045;-62
2023/06/10 04:01:56;;;;;;;14.55;12.32;;;;;17.80;98310.00;;;;5070671;28;20055;-62
2023/06/10 04:04:23;;;;;;;14.57;11.82;;;;;17.80;98321.00;;;;5070681;28;20045;-66
2023/06/10 04:06:50;;;;;;;10.88;9.77;;;;;18.00;98320.00;;;;5070337;28;20040;-63
2023/06/10 04:09:17;;;;;;;14.15;11.10;;;;;18.10;98322.00;;;;5071833;28;20052;-63
2023/06/10 04:11:44;;;;;;;11.98;10.55;;;;;18.10;98325.00;;;;5074732;28;20045;-62
2023/06/10 04:14:10;;;;;;;13.65;10.52;;;;;18.20;98313.00;;;;5074662;28;20040;-64
2023/06/10 04:16:39;;;;;;;11.13;10.13;;;;;18.30;98322.00;;;;5058245;28;20521;-65
2023/06/10 04:19:06;;;;;;;11.45;10.35;;;;;18.20;98326.00;;;;5057753;28;20057;-62
2023/06/10 04:21:32;;;;;;;12.75;10.95;;;;;18.10;98319.00;;;;5074314;28;20056;-62
2023/06/10 04:23:59;;;;;;;10.75;9.75;;;;;18.00;98316.00;;;;5057733;28;20049;-65
2023/06/10 04:26:27;;;;;;;10.18;9.27;;;;;18.00;98325.00;;;;5074059;28;20041;-62
2023/06/10 04:28:54;;;;;;;11.68;10.48;;;;;17.90;98328.00;;;;5074273;28;20078;-62
2023/06/10 04:31:21;;;;;;;11.45;10.25;;;;;17.90;98325.00;;;;5057826;28;20052;-64
2023/06/10 04:33:48;;;;;;;12.23;10.63;;;;;17.90;98331.00;;;;5074074;28;20408;-62
2023/06/10 04:36:15;;;;;;;9.98;9.00;;;;;18.10;98335.00;;;;5074225;28;20040;-61
2023/06/10 04:38:42;;;;;;;10.07;9.07;;;;;18.30;98334.00;;;;5074167;28;20098;-64
2023/06/10 04:41:09;;;;;;;11.07;9.57;;;;;18.30;98331.00;;;;5073902;28;20502;-62
2023/06/10 04:43:36;;;;;;;10.43;9.10;;;;;18.40;98333.00;;;;5074293;28;20045;-63
2023/06/10 04:46:03;;;;;;;10.25;9.38;;;;;18.50;98332.00;;;;5074111;28;20055;-62
2023/06/10 04:48:35;;;;;;;10.05;9.02;;;;;18.60;98338.00;;;;5074474;28;20064;-64
2023/06/10 04:51:02;;;;;;;9.90;8.85;;;;;18.70;98339.00;;;;5074262;28;20516;-62
2023/06/10 04:53:29;;;;;;;10.25;9.35;;;;;18.80;98342.00;;;;5074189;28;20541;-62
2023/06/10 04:55:57;;;;;;;11.10;10.00;;;;;18.90;98343.00;;;;5073818;28;20183;-62
2023/06/10 04:58:24;;;;;;;12.38;9.73;;;;;19.00;98341.00;;;;5074969;28;20043;-61
2023/06/10 05:00:50;;;;;;;9.73;8.82;;;;;19.10;98341.00;;;;5074717;28;20041;-63
2023/06/10 05:03:17;;;;;;;10.80;9.73;;;;;19.20;98336.00;;;;5074843;28;20090;-61
2023/06/10 05:05:44;;;;;;;10.18;9.18;;;;;19.20;98333.00;;;;5074924;28;20036;-61
2023/06/10 05:08:10;;;;;;;11.65;9.95;;;;;19.40;98340.00;;;;5073507;28;20098;-64
2023/06/10 05:10:37;;;;;;;11.57;10.35;;;;;19.50;98346.00;;;;5074496;28;20051;-62
2023/06/10 05:13:04;;;;;;;12.13;10.30;;;;;19.60;98342.00;;;;5073405;28;20068;-62
2023/06/10 05:15:30;;;;;;;13.05;11.50;;;;;19.60;98347.00;;;;5074627;28;20037;-62
2023/06/10 05:17:58;;;;;;;11.77;9.60;;;;;19.70;98346.00;;;;5074664;28;20036;-63
2023/06/10 05:20:25;;;;;;;10.60;9.57;;;;;19.60;98345.00;;;;5073186;28;20052;-65
2023/06/10 05:22:52;;;;;;;10.95;9.93;;;;;19.60;98345.00;;;;5073336;28;20051;-63
2023/06/10 05:25:19;;;;;;;18.40;16.45;;;;;19.80;98354.00;;;;5073232;28;20048;-64
2023/06/10 05:27:46;;;;;;;16.73;13.95;;;;;19.90;98350.00;;;;5074401;28;20041;-62
2023/06/10 05:30:12;;;;;;;11.45;10.18;;;;;20.00;98347.00;;;;5074101;28;20386;-62
2023/06/10 05:32:39;;;;;;;10.65;9.55;;;;;20.10;98348.00;;;;5072770;28;20073;-62
2023/06/10 05:35:06;;;;;;;10.50;9.57;;;;;20.30;98344.00;;;;5074249;28;20044;-62
2023/06/10 05:37:34;;;;;;;10.63;8.93;;;;;20.40;98349.00;;;;5074073;28;20037;-62
2023/06/10 05:40:01;;;;;;;11.93;10.65;;;;;20.50;98344.00;;;;5073975;28;20497;-62
2023/06/10 05:42:27;;;;;;;10.45;9.35;;;;;20.60;98351.00;;;;5074033;28;20048;-62
2023/06/10 05:44:54;;;;;;;12.40;11.13;;;;;20.70;98342.00;;;;5073010;28;20527;-63
2023/06/10 05:47:21;;;;;;;11.82;9.45;;;;;20.90;98358.00;;;;5072614;28;20080;-62
2023/06/10 05:49:49;;;;;;;12.88;9.48;;;;;21.00;98348.00;;;;5072898;28;20048;-62
2023/06/10 05:52:16;;;;;;;9.65;8.75;;;;;21.20;98354.00;;;;5074089;28;20051;-62
2023/06/10 05:54:43;;;;;;;11.07;9.02;;;;;21.30;98355.00;;;;5074175;28;20459;-62
2023/06/10 05:57:10;;;;;;;9.50;8.55;;;;;21.20;98354.00;;;;5073864;28;20051;-62
2023/06/10 05:59:36;;;;;;;10.35;9.35;;;;;21.40;98363.00;;;;5073811;28;20123;-62
2023/06/10 06:02:03;;;;;;;11.73;8.68;;;;;21.50;98369.00;;;;5072569;28;20056;-62
2023/06/10 06:04:30;;;;;;;9.82;8.82;;;;;21.60;98369.00;;;;5072729;28;20048;-62
2023/06/10 06:06:56;;;;;;;10.63;9.52;;;;;21.60;98370.00;;;;5073586;28;20493;-63
2023/06/10 06:09:23;;;;;;;9.10;8.15;;;;;21.70;98365.00;;;;5073714;28;20051;-63
2023/06/10 06:11:50;;;;;;;9.68;8.65;;;;;21.70;98368.00;;;;5074388;28;20048;-64
2023/06/10 06:14:16;;;;;;;13.25;10.65;;;;;21.80;98368.00;;;;5072940;28;20072;-64
2023/06/10 06:16:43;;;;;;;13.73;12.07;;;;;21.90;98365.00;;;;5073579;28;20044;-63
2023/06/10 06:19:11;;;;;;;11.07;8.95;;;;;22.10;98370.00;;;;5072673;28;20166;-63
2023/06/10 06:21:37;;;;;;;11.95;8.23;;;;;22.20;98365.00;;;;5073765;28;20048;-63
2023/06/10 06:24:04;;;;;;;11.25;8.38;;;;;22.20;98374.00;;;;5074010;28;20083;-63
2023/06/10 06:26:31;;;;;;;11.05;8.10;;;;;22.30;98363.00;;;;5072155;28;20045;-63
2023/06/10 06:28:58;;;;;;;9.40;8.02;;;;;22.50;98371.00;;;;5072949;28;20438;-63
2023/06/10 06:31:25;;;;;;;9.27;8.23;;;;;22.70;98370.00;;;;5073221;28;20044;-63
2023/06/10 06:33:51;;;;;;;9.95;8.95;;;;;22.80;98371.00;;;;5072789;28;20051;-63
2023/06/10 06:36:18;;;;;;;14.57;10.05;;;;;22.80;98375.00;;;;5071821;28;20068;-63
2023/06/10 06:38:45;;;;;;;8.23;6.90;;;;;22.90;98373.00;;;;5073787;28;20456;-62
2023/06/10 06:41:12;;;;;;;7.60;6.60;;;;;23.00;98372.00;;;;5055719;28;20135;-66
2023/06/10 06:43:38;;;;;;;8.90;6.90;;;;;23.10;98370.00;;;;5073232;28;20048;-62
2023/06/10 06:46:37;;;;;;;9.18;6.50;;;;;23.10;98376.00;;;;5072801;28;20109;-65
2023/06/10 06:49:03;;;;;;;7.65;6.85;;;;;23.10;98382.00;;;;5059171;28;20147;-62
2023/06/10 06:51:30;;;;;;;6.93;6.10;;;;;23.20;98375.00;;;;5076588;28;20367;-64
2023/06/10 06:53:58;;;;;;;7.47;6.78;;;;;23.30;98378.00;;;;5074454;28;20089;-62
2023/06/10 06:56:27;;;;;;;8.00;7.20;;;;;23.40;98371.00;;;;5074859;28;20457;-63
2023/06/10 06:58:53;;;;;;;7.72;6.50;;;;;23.40;98380.00;;;;5075296;28;20041;-62
2023/06/10 07:01:23;;;;;;;7.53;6.68;;;;;23.50;98379.00;;;;5076135;28;20493;-62
2023/06/10 07:03:50;;;;;;;7.72;6.75;;;;;23.60;98380.00;;;;5073186;28;20513;-63
2023/06/10 07:06:16;;;;;;;6.90;6.30;;;;;23.70;98381.00;;;;5072601;28;20043;-62
2023/06/10 07:08:43;;;;;;;8.98;6.80;;;;;23.80;98369.00;;;;5072838;28;20044;-62
2023/06/10 07:11:09;;;;;;;7.18;6.20;;;;;23.80;98376.00;;;;5072850;28;20127;-63
2023/06/10 07:13:36;;;;;;;7.18;6.47;;;;;24.00;98375.00;;;;5072902;28;20044;-63
2023/06/10 07:16:03;;;;;;;6.72;6.05;;;;;24.10;98383.00;;;;5071947;28;20045;-63
2023/06/10 07:18:30;;;;;;;7.07;6.40;;;;;24.20;98385.00;;;;5072662;28;20040;-63
2023/06/10 07:20:56;;;;;;;6.57;5.90;;;;;24.20;98383.00;;;;5071478;28;20059;-63
2023/06/10 07:23:23;;;;;;;6.30;5.70;;;;;24.30;98376.00;;;;5071581;28;20090;-63
2023/06/10 07:25:50;;;;;;;7.50;5.97;;;;;24.40;98386.00;;;;5071073;28;20160;-63
2023/06/10 07:28:16;;;;;;;7.80;5.85;;;;;24.50;98385.00;;;;5072289;28;20066;-61
2023/06/10 07:30:43;;;;;;;7.45;5.78;;;;;24.50;98389.00;;;;5072224;28;20044;-63
2023/06/10 07:33:10;;;;;;;5.70;5.18;;;;;24.60;98383.00;;;;5071137;28;20041;-63
2023/06/10 07:35:37;;;;;;;5.53;4.78;;;;;24.70;98388.00;;;;5071138;28;20053;-63
2023/06/10 07:38:04;;;;;;;5.18;4.68;;;;;24.80;98385.00;;;;5070653;28;20043;-63
2023/06/10 07:40:30;;;;;;;5.10;4.40;;;;;24.80;98388.00;;;;5070989;28;20513;-63
2023/06/10 07:43:00;;;;;;;5.53;5.03;;;;;24.80;98383.00;;;;5073057;28;20044;-62
2023/06/10 07:45:27;;;;;;;14.57;11.40;;;;;24.90;98382.00;;;;5071820;28;20064;-61
2023/06/10 07:47:54;;;;;;;5.93;5.32;;;;;25.00;98383.00;;;;5072479;28;20463;-62
2023/06/10 07:50:21;;;;;;;5.15;4.57;;;;;25.10;98377.00;;;;5070795;28;20047;-63
2023/06/10 07:52:48;;;;;;;6.10;5.50;;;;;25.30;98381.00;;;;5072175;28;20076;-62
2023/06/10 07:55:14;;;;;;;6.47;4.65;;;;;25.40;98377.00;;;;5071201;28;20561;-63
2023/06/10 07:57:41;;;;;;;5.60;4.45;;;;;25.50;98375.00;;;;5072180;28;20489;-63
2023/06/10 08:00:08;;;;;;;6.90;4.30;;;;;25.70;98380.00;;;;5054222;28;20128;-62
2023/06/10 08:02:44;;;;;;;4.85;4.43;;;;;25.80;98377.00;;;;5071163;28;20048;-63
2023/06/10 08:05:11;;;;;;;5.00;4.50;;;;;25.90;98376.00;;;;5072030;28;20067;-63
2023/06/10 08:07:39;;;;;;;4.80;4.38;;;;;25.80;98375.00;;;;5072071;28;20119;-63
2023/06/10 08:10:07;;;;;;;6.57;4.15;;;;;25.90;98375.00;;;;5070680;28;20090;-63
2023/06/10 08:12:34;;;;;;;5.55;4.45;;;;;25.90;98376.00;;;;5072148;28;20048;-63
2023/06/10 08:15:03;;;;;;;4.28;3.88;;;;;26.00;98381.00;;;;5072189;28;20064;-63
2023/06/10 08:17:30;;;;;;;4.63;4.15;;;;;26.20;98385.00;;;;5070502;28;20050;-63
2023/06/10 08:19:57;;;;;;;4.75;4.22;;;;;26.10;98386.00;;;;5070292;28;20041;-63
2023/06/10 08:22:24;;;;;;;5.18;4.47;;;;;26.10;98381.00;;;;5070244;28;20056;-62
2023/06/10 08:24:51;;;;;;;5.03;4.18;;;;;26.40;98376.00;;;;5071741;28;20600;-63
2023/06/10 08:27:17;;;;;;;6.43;4.60;;;;;26.50;98388.00;;;;5070558;28;20119;-63
2023/06/10 08:29:44;;;;;;;4.30;3.90;;;;;26.70;98380.00;;;;5070263;28;20127;-63
2023/06/10 08:32:10;;;;;;;5.45;4.82;;;;;26.70;98376.00;;;;5070471;28;20661;-62
2023/06/10 08:34:37;;;;;;;6.40;4.20;;;;;26.60;98377.00;;;;5072101;28;20494;-63
2023/06/10 08:37:04;;;;;;;4.70;4.30;;;;;26.70;98383.00;;;;5072197;28;20123;-62
2023/06/10 08:39:34;;;;;;;4.47;4.07;;;;;26.90;98379.00;;;;5072520;28;20059;-62
2023/06/10 08:42:24;;;;;;;4.82;4.18;;;;;27.10;98378.00;;;;5072309;28;20497;-64
2023/06/10 08:44:56;;;;;;;5.63;5.15;;;;;27.10;98384.00;;;;5070884;28;20163;-62
2023/06/10 08:47:24;;;;;;;6.35;4.55;;;;;27.00;98379.00;;;;5072025;28;20076;-62
2023/06/10 08:49:56;;;;;;;4.57;4.18;;;;;27.00;98390.00;;;;5071570;28;20044;-62
2023/06/10 08:52:26;;;;;;;4.53;4.03;;;;;27.00;98385.00;;;;5053862;28;20048;-61
2023/06/10 08:54:58;;;;;;;7.95;6.90;;;;;27.10;98383.00;;;;5070315;28;20565;-62
2023/06/10 08:57:26;;;;;;;7.22;5.55;;;;;27.10;98388.00;;;;5073463;28;20102;-61
2023/06/10 08:59:56;;;;;;;4.25;3.90;;;;;27.20;98378.00;;;;5073979;28;20054;-62
2023/06/10 09:02:23;;;;;;;5.68;4.75;;;;;27.10;98373.00;;;;5074041;28;20563;-61
2023/06/10 09:04:51;;;;;;;6.00;4.25;;;;;27.30;98374.00;;;;5074079;28;20094;-62
2023/06/10 09:07:18;;;;;;;5.55;4.20;;;;;27.30;98373.00;;;;5073902;28;20061;-62
2023/06/10 09:09:45;;;;;;;6.20;4.38;;;;;27.50;98369.00;;;;5075001;28;20074;-60
2023/06/10 09:12:14;;;;;;;4.70;3.90;;;;;27.60;98367.00;;;;5074641;28;20049;-62
2023/06/10 09:14:42;;;;;;;5.22;4.72;;;;;27.70;98364.00;;;;5072610;28;20132;-61
2023/06/10 09:17:08;;;;;;;4.95;4.18;;;;;27.80;98363.00;;;;5074415;28;20115;-61
2023/06/10 09:19:36;;;;;;;4.43;4.03;;;;;27.90;98364.00;;;;5074432;28;20046;-62
2023/06/10 09:22:03;;;;;;;4.97;4.47;;;;;28.00;98364.00;;;;5074490;28;20068;-62
2023/06/10 09:24:31;;;;;;;5.85;4.28;;;;;28.00;98361.00;;;;5073391;28;20074;-62
2023/06/10 09:27:06;;;;;;;5.32;4.82;;;;;28.10;98359.00;;;;5073742;28;20060;-61
2023/06/10 09:30:05;;;;;;;4.88;3.88;;;;;28.20;98359.00;;;;5073290;28;20049;-63
2023/06/10 09:32:39;;;;;;;4.93;4.03;;;;;28.40;98364.00;;;;5051302;28;20135;-61
2023/06/10 09:35:09;;;;;;;;;;;;;28.40;98360.00;;;;5073990;28;20044;-61
2023/06/10 09:37:38;;;;;;;4.28;3.88;;;;;28.20;98353.00;;;;5074364;28;20018;-60
2023/06/10 09:40:07;;;;;;;7.55;4.03;;;;;28.10;98358.00;;;;5073791;28;20131;-62
2023/06/10 09:42:36;;;;;;;4.53;4.13;;;;;28.00;98366.00;;;;5074560;28;20455;-61
2023/06/10 09:45:05;;;;;;;4.70;4.00;;;;;27.90;98362.00;;;;5074469;28;20083;-62
2023/06/10 09:47:32;;;;;;;4.45;4.05;;;;;27.80;98354.00;;;;5074419;28;20036;-62
2023/06/10 09:49:58;;;;;;;5.68;4.15;;;;;27.80;98362.00;;;;5072934;28;20044;-62
2023/06/10 09:52:27;;;;;;;6.60;4.63;;;;;27.70;98356.00;;;;5072747;28;20072;-63
2023/06/10 09:55:00;;;;;;;4.53;4.13;;;;;27.80;98351.00;;;;5074051;28;20131;-62
2023/06/10 09:57:30;;;;;;;5.07;4.10;;;;;27.70;98357.00;;;;5073834;28;20045;-61
2023/06/10 09:59:57;;;;;;;5.25;4.40;;;;;27.70;98353.00;;;;5073916;28;20460;-61
2023/06/10 10:02:24;;;;;;;4.85;4.45;;;;;27.60;98356.00;;;;5074167;28;20458;-63
2023/06/10 10:04:50;;;;;;;4.97;4.45;;;;;27.60;98341.00;;;;5073817;28;20048;-61
2023/06/10 10:07:17;;;;;;;4.07;3.78;;;;;27.90;98355.00;;;;5055094;28;20040;-61
2023/06/10 10:09:44;;;;;;;6.40;4.00;;;;;27.80;98349.00;;;;5073556;28;20136;-62
2023/06/10 10:12:14;;;;;;;5.38;4.60;;;;;27.70;98352.00;;;;5073576;28;20049;-62
2023/06/10 10:14:48;;;;;;;6.63;4.88;;;;;27.70;98345.00;;;;5072684;28;20037;-62
2023/06/10 10:17:15;;;;;;;6.13;4.22;;;;;27.90;98355.00;;;;5072268;28;20432;-62
2023/06/10 10:19:57;;;;;;;7.78;4.57;;;;;27.90;98366.00;;;;5073225;28;20075;-62
2023/06/10 10:22:26;;;;;;;4.25;3.85;;;;;28.00;98351.00;;;;5072358;28;20070;-62
2023/06/10 10:24:57;;;;;;;4.65;4.20;;;;;27.90;98364.00;;;;5073631;28;20048;-62
2023/06/10 10:27:33;;;;;;;5.43;4.40;;;;;27.90;98355.00;;;;5073313;28;20493;-62
2023/06/10 10:30:04;;;;;;;5.38;4.30;;;;;27.90;98359.00;;;;5072059;28;20036;-62
2023/06/10 10:32:53;;;;;;;4.68;4.28;;;;;28.00;98353.00;;;;5073203;28;20509;-62
2023/06/10 10:35:25;;;;;;;5.97;4.00;;;;;27.80;98354.00;;;;5069781;28;20117;-62
2023/06/10 10:37:52;;;;;;;5.18;4.43;;;;;27.80;98356.00;;;;5073509;28;20051;-61
2023/06/10 10:40:21;;;;;;;6.20;4.43;;;;;27.60;98358.00;;;;5071912;28;20446;-62
2023/06/10 10:42:52;;;;;;;5.20;4.70;;;;;27.70;98359.00;;;;5073563;28;20046;-61
2023/06/10 10:45:21;;;;;;;6.00;4.50;;;;;27.90;98347.00;;;;5072571;28;20506;-62
2023/06/10 10:47:53;;;;;;;12.05;4.63;;;;;28.00;98341.00;;;;5071764;28;20123;-62
2023/06/10 10:50:20;;;;;;;5.63;4.32;;;;;28.20;98339.00;;;;5072967;28;20045;-62
2023/06/10 10:52:56;;;;;;;4.90;4.50;;;;;28.50;98339.00;;;;5073335;28;20139;-61
2023/06/10 10:55:24;;;;;;;5.72;4.32;;;;;28.50;98344.00;;;;5074434;28;20084;-62
2023/06/10 10:58:06;;;;;;;4.55;3.97;;;;;28.40;98339.00;;;;5074425;28;20040;-61
2023/06/10 11:00:35;;;;;;;7.10;4.68;;;;;28.50;98338.00;;;;5072250;28;20041;-61
2023/06/10 11:03:09;;;;;;;5.68;4.85;;;;;28.70;98338.00;;;;5072462;28;20703;-63
2023/06/10 11:05:40;;;;;;;5.32;4.88;;;;;28.80;98340.00;;;;5073105;28;20048;-64
2023/06/10 11:08:08;;;;;;;7.13;4.47;;;;;28.80;98339.00;;;;5073304;28;20036;-64
2023/06/10 11:10:36;;;;;;;6.72;4.93;;;;;28.80;98346.00;;;;5071514;28;20056;-64
2023/06/10 11:13:13;;;;;;;5.10;4.63;;;;;28.80;98350.00;;;;5072055;28;20055;-64
2023/06/10 11:15:47;;;;;;;5.00;4.50;;;;;28.80;98328.00;;;;5071800;28;20090;-63
2023/06/10 11:18:14;;;;;;;6.53;5.63;;;;;29.00;98334.00;;;;5055922;28;20052;-63
2023/06/10 11:20:49;;;;;;;7.95;6.18;;;;;29.10;98336.00;;;;5072969;28;20123;-62
2023/06/10 11:23:29;;;;;;;6.68;5.78;;;;;29.10;98337.00;;;;5071631;28;20064;-64
2023/06/10 11:26:12;;;;;;;5.43;4.65;;;;;29.30;98339.00;;;;5071960;28;20053;-63
2023/06/10 11:28:39;;;;;;;6.15;4.85;;;;;29.30;98331.00;;;;5073004;28;20516;-63
2023/06/10 11:31:06;;;;;;;5.25;4.75;;;;;29.40;98346.00;;;;5071036;28;20044;-63
2023/06/10 11:33:36;;;;;;;5.03;4.53;;;;;29.20;98328.00;;;;5071844;28;20044;-63
2023/06/10 11:36:07;;;;;;;4.93;4.53;;;;;29.30;98343.00;;;;5071904;28;20040;-62
2023/06/10 11:38:33;;;;;;;5.43;4.93;;;;;29.30;98338.00;;;;5072739;28;20049;-63
2023/06/10 11:41:02;;;;;;;6.57;4.97;;;;;29.20;98336.00;;;;5070873;28;20442;-63
2023/06/10 11:43:30;;;;;;;6.53;5.13;;;;;29.00;98329.00;;;;5072622;28;20044;-64
2023/06/10 11:45:57;;;;;;;6.57;4.80;;;;;29.20;98334.00;;;;5072337;28;20045;-64
2023/06/10 11:48:24;;;;;;;6.10;4.70;;;;;29.40;98338.00;;;;5072124;28;20487;-63
2023/06/10 11:50:52;;;;;;;5.45;4.70;;;;;29.30;98338.00;;;;5070728;28;20049;-63
2023/06/10 11:53:19;;;;;;;6.45;4.97;;;;;29.50;98330.00;;;;5071014;28;20102;-63
2023/06/10 11:55:48;;;;;;;8.77;5.20;;;;;29.50;98329.00;;;;5070705;28;20066;-63
2023/06/10 11:58:19;;;;;;;5.28;4.88;;;;;29.60;98329.00;;;;5070910;28;20075;-64
2023/06/10 12:00:46;;;;;;;6.30;4.72;;;;;29.70;98324.00;;;;5071627;28;20044;-63
2023/06/10 12:03:13;;;;;;;5.03;4.50;;;;;30.00;98332.00;;;;5072694;28;20045;-63
2023/06/10 12:05:40;;;;;;;5.55;5.00;;;;;30.40;98331.00;;;;5072310;28;20177;-63
2023/06/10 12:08:11;;;;;;;7.03;5.13;;;;;30.40;98327.00;;;;5071176;28;20052;-63
2023/06/10 12:10:42;;;;;;;5.30;4.80;;;;;30.60;98327.00;;;;5071153;28;20453;-61
2023/06/10 12:13:09;;;;;;;6.60;5.38;;;;;30.70;98327.00;;;;5070908;28;20048;-62
2023/06/10 12:15:36;;;;;;;5.43;4.93;;;;;30.50;98334.00;;;;5071053;28;20079;-63
2023/06/10 12:18:03;;;;;;;5.72;5.22;;;;;30.20;98326.00;;;;5070987;28;20051;-62
2023/06/10 12:20:33;;;;;;;6.13;4.90;;;;;29.90;98330.00;;;;5070234;28;20044;-64